createdAt,value
2024-03-02T00:00:13.969Z,993.87
2024-03-02T00:01:13.938Z,993.81
2024-03-02T00:02:13.910Z,993.84
2024-03-02T00:03:13.889Z,993.82
2024-03-02T00:04:13.873Z,993.79
2024-03-02T00:05:13.849Z,993.82
2024-03-02T00:06:13.846Z,993.83
2024-03-02T00:07:13.814Z,993.84
2024-03-02T00:08:13.796Z,993.74
2024-03-02T00:09:13.855Z,993.77
2024-03-02T00:10:13.842Z,993.82
2024-03-02T00:11:13.816Z,993.83
2024-03-02T00:12:13.858Z,993.76
2024-03-02T00:13:13.756Z,993.75
2024-03-02T00:14:13.740Z,993.73
2024-03-02T00:15:13.750Z,993.80
2024-03-02T00:16:13.738Z,993.81
2024-03-02T00:17:13.716Z,993.75
2024-03-02T00:18:13.823Z,993.69
2024-03-02T00:19:13.721Z,993.70
2024-03-02T00:20:13.676Z,993.73
2024-03-02T00:21:13.747Z,993.74
2024-03-02T00:22:13.652Z,993.68
2024-03-02T00:23:13.647Z,993.67
2024-03-02T00:24:13.660Z,993.71
2024-03-02T00:25:13.618Z,993.73
2024-03-02T00:26:13.633Z,993.72
2024-03-02T00:27:13.651Z,993.67
2024-03-02T00:28:13.631Z,993.74
2024-03-02T00:29:13.609Z,993.67
2024-03-02T00:30:13.584Z,993.69
2024-03-02T00:31:13.584Z,993.65
2024-03-02T00:32:13.561Z,993.62
2024-03-02T00:33:13.596Z,993.64
2024-03-02T00:34:13.567Z,993.66
2024-03-02T00:35:13.517Z,993.62
2024-03-02T00:36:13.547Z,993.67
2024-03-02T00:37:13.530Z,993.67
2024-03-02T00:38:13.485Z,993.66
2024-03-02T00:39:13.491Z,993.62
2024-03-02T00:40:13.464Z,993.66
2024-03-02T00:41:13.487Z,993.67
2024-03-02T00:42:13.482Z,993.64
2024-03-02T00:43:13.428Z,993.64
2024-03-02T00:44:13.416Z,993.63
2024-03-02T00:45:13.460Z,993.62
2024-03-02T00:46:13.402Z,993.60
2024-03-02T00:47:13.393Z,993.61
2024-03-02T00:48:13.393Z,993.61
2024-03-02T00:49:13.386Z,993.58
2024-03-02T00:50:20.622Z,993.55
2024-03-02T00:51:13.369Z,993.54
2024-03-02T00:52:13.360Z,993.56
2024-03-02T00:53:13.342Z,993.54
2024-03-02T00:54:13.350Z,993.53
2024-03-02T00:55:13.301Z,993.47
2024-03-02T00:56:13.293Z,993.49
2024-03-02T00:57:13.365Z,993.46
2024-03-02T00:58:13.296Z,993.48
2024-03-02T00:59:13.269Z,993.42
2024-03-02T01:00:13.296Z,993.42
2024-03-02T01:01:13.327Z,993.47
2024-03-02T01:02:13.217Z,993.50
2024-03-02T01:03:13.274Z,993.47
2024-03-02T01:04:13.238Z,993.46
2024-03-02T01:05:13.202Z,993.45
2024-03-02T01:06:13.204Z,993.46
2024-03-02T01:07:13.170Z,993.46
2024-03-02T01:08:13.169Z,993.47
2024-03-02T01:09:13.238Z,993.49
2024-03-02T01:10:13.156Z,993.48
2024-03-02T01:11:13.136Z,993.46
2024-03-02T01:12:13.184Z,993.48
2024-03-02T01:13:13.144Z,993.49
2024-03-02T01:14:13.101Z,993.47
2024-03-02T01:15:13.171Z,993.44
2024-03-02T01:16:13.086Z,993.45
2024-03-02T01:17:13.075Z,993.49
2024-03-02T01:18:13.085Z,993.50
2024-03-02T01:19:13.128Z,993.48
2024-03-02T01:20:13.038Z,993.49
2024-03-02T01:21:13.154Z,993.50
2024-03-02T01:22:13.019Z,993.50
2024-03-02T01:23:13.029Z,993.48
2024-03-02T01:24:13.013Z,993.46
2024-03-02T01:25:12.989Z,993.45
2024-03-02T01:26:13.018Z,993.43
2024-03-02T01:27:13.056Z,993.41
2024-03-02T01:28:12.947Z,993.42
2024-03-02T01:29:13.005Z,993.44
2024-03-02T01:30:12.996Z,993.45
2024-03-02T01:31:12.965Z,993.45
2024-03-02T01:32:12.944Z,993.46
2024-03-02T01:33:13.025Z,993.49
2024-03-02T01:34:12.922Z,993.47
2024-03-02T01:35:12.904Z,993.47
2024-03-02T01:36:12.916Z,993.45
2024-03-02T01:37:12.864Z,993.46
2024-03-02T01:38:12.896Z,993.48
2024-03-02T01:39:12.941Z,993.49
2024-03-02T01:40:12.831Z,993.51
2024-03-02T01:41:12.860Z,993.51
2024-03-02T01:42:12.878Z,993.52
2024-03-02T01:43:12.801Z,993.50
2024-03-02T01:44:12.798Z,993.49
2024-03-02T01:45:12.925Z,993.49
2024-03-02T01:46:12.767Z,993.50
2024-03-02T01:47:12.750Z,993.49
2024-03-02T01:48:12.777Z,993.48
2024-03-02T01:49:12.771Z,993.48
2024-03-02T01:50:12.773Z,993.48
2024-03-02T01:51:12.724Z,993.46
2024-03-02T01:52:12.692Z,993.46
2024-03-02T01:53:12.739Z,993.45
2024-03-02T01:54:12.694Z,993.45
2024-03-02T01:55:12.680Z,993.44
2024-03-02T01:56:12.675Z,993.41
2024-03-02T01:57:12.648Z,993.41
2024-03-02T01:58:12.640Z,993.40
2024-03-02T01:59:12.649Z,993.41
2024-03-02T02:00:12.651Z,993.45
2024-03-02T02:01:12.733Z,993.42
2024-03-02T02:02:12.598Z,993.44
2024-03-02T02:03:12.593Z,993.46
2024-03-02T02:04:12.576Z,993.46
2024-03-02T02:05:12.568Z,993.43
2024-03-02T02:06:12.547Z,993.42
2024-03-02T02:07:12.580Z,993.40
2024-03-02T02:08:12.544Z,993.40
2024-03-02T02:09:12.545Z,993.38
2024-03-02T02:10:12.534Z,993.39
2024-03-02T02:11:12.530Z,993.41
2024-03-02T02:12:12.501Z,993.41
2024-03-02T02:13:12.505Z,993.37
2024-03-02T02:14:12.481Z,993.36
2024-03-02T02:15:12.478Z,993.33
2024-03-02T02:16:12.509Z,993.28
2024-03-02T02:17:12.473Z,993.26
2024-03-02T02:18:12.489Z,993.26
2024-03-02T02:19:12.441Z,993.26
2024-03-02T02:20:12.413Z,993.27
2024-03-02T02:21:12.394Z,993.26
2024-03-02T02:22:12.404Z,993.25
2024-03-02T02:23:12.389Z,993.23
2024-03-02T02:24:12.388Z,993.21
2024-03-02T02:25:12.362Z,993.20
2024-03-02T02:26:12.339Z,993.21
2024-03-02T02:27:12.359Z,993.20
2024-03-02T02:28:12.340Z,993.19
2024-03-02T02:29:12.329Z,993.18
2024-03-02T02:30:12.301Z,993.19
2024-03-02T02:31:12.350Z,993.18
2024-03-02T02:32:12.292Z,993.17
2024-03-02T02:33:12.345Z,993.14
2024-03-02T02:34:12.330Z,993.14
2024-03-02T02:35:12.258Z,993.14
2024-03-02T02:36:12.251Z,993.14
2024-03-02T02:37:12.271Z,993.15
2024-03-02T02:38:12.238Z,993.13
2024-03-02T02:39:12.207Z,993.13
2024-03-02T02:40:12.251Z,993.15
2024-03-02T02:41:12.202Z,993.15
2024-03-02T02:42:12.192Z,993.12
2024-03-02T02:43:12.166Z,993.10
2024-03-02T02:44:12.155Z,993.09
2024-03-02T02:45:12.206Z,993.05
2024-03-02T02:46:12.238Z,993.03
2024-03-02T02:47:12.156Z,993.02
2024-03-02T02:48:12.151Z,993.02
2024-03-02T02:49:12.116Z,993.01
2024-03-02T02:50:12.158Z,992.99
2024-03-02T02:51:12.105Z,992.97
2024-03-02T02:52:12.086Z,992.95
2024-03-02T02:53:12.116Z,992.94
2024-03-02T02:54:12.074Z,992.94
2024-03-02T02:55:12.048Z,992.91
2024-03-02T02:56:12.036Z,992.90
2024-03-02T02:57:12.096Z,992.91
2024-03-02T02:58:12.020Z,992.92
2024-03-02T02:59:12.011Z,992.94
2024-03-02T03:00:12.107Z,992.94
2024-03-02T03:01:12.121Z,992.94
2024-03-02T03:02:11.980Z,992.93
2024-03-02T03:03:12.009Z,992.93
2024-03-02T03:04:11.950Z,992.89
2024-03-02T03:05:11.965Z,992.89
2024-03-02T03:06:11.938Z,992.87
2024-03-02T03:07:11.946Z,992.88
2024-03-02T03:08:11.952Z,992.89
2024-03-02T03:09:11.910Z,992.91
2024-03-02T03:10:11.942Z,992.93
2024-03-02T03:11:11.897Z,992.93
2024-03-02T03:12:11.865Z,992.97
2024-03-02T03:13:11.872Z,992.99
2024-03-02T03:14:11.895Z,992.96
2024-03-02T03:15:11.879Z,992.95
2024-03-02T03:16:11.863Z,992.98
2024-03-02T03:17:11.819Z,992.98
2024-03-02T03:18:11.899Z,992.95
2024-03-02T03:19:11.804Z,992.91
2024-03-02T03:20:11.917Z,992.93
2024-03-02T03:21:11.784Z,992.95
2024-03-02T03:22:11.762Z,992.96
2024-03-02T03:23:11.757Z,993.00
2024-03-02T03:24:11.756Z,993.02
2024-03-02T03:25:11.790Z,993.03
2024-03-02T03:26:11.736Z,993.03
2024-03-02T03:27:11.713Z,992.99
2024-03-02T03:28:11.701Z,993.00
2024-03-02T03:29:11.701Z,993.00
2024-03-02T03:30:11.692Z,992.97
2024-03-02T03:31:11.688Z,992.98
2024-03-02T03:32:11.689Z,993.01
2024-03-02T03:33:11.671Z,993.02
2024-03-02T03:34:11.638Z,993.02
2024-03-02T03:35:11.703Z,993.02
2024-03-02T03:36:11.641Z,993.02
2024-03-02T03:37:11.646Z,993.04
2024-03-02T03:38:11.596Z,993.06
2024-03-02T03:39:11.589Z,993.06
2024-03-02T03:40:11.892Z,993.08
2024-03-02T03:41:11.569Z,993.05
2024-03-02T03:42:11.595Z,993.05
2024-03-02T03:43:11.660Z,993.02
2024-03-02T03:44:11.546Z,993.02
2024-03-02T03:45:11.539Z,993.00
2024-03-02T03:46:11.530Z,993.00
2024-03-02T03:47:11.500Z,993.01
2024-03-02T03:48:11.565Z,993.00
2024-03-02T03:49:11.481Z,993.02
2024-03-02T03:50:11.478Z,993.05
2024-03-02T03:51:11.459Z,993.05
2024-03-02T03:52:11.449Z,993.04
2024-03-02T03:53:11.452Z,993.02
2024-03-02T03:54:11.448Z,993.03
2024-03-02T03:55:11.451Z,993.02
2024-03-02T03:56:11.435Z,993.04
2024-03-02T03:57:11.388Z,993.05
2024-03-02T03:58:11.386Z,993.06
2024-03-02T03:59:11.369Z,993.08
2024-03-02T04:00:11.676Z,993.09
2024-03-02T04:01:11.404Z,993.13
2024-03-02T04:02:11.337Z,993.12
2024-03-02T04:03:11.323Z,993.11
2024-03-02T04:04:11.325Z,993.09
2024-03-02T04:05:11.326Z,993.06
2024-03-02T04:06:11.333Z,993.08
2024-03-02T04:07:11.295Z,993.06
2024-03-02T04:08:11.282Z,993.04
2024-03-02T04:09:11.271Z,993.01
2024-03-02T04:10:11.303Z,993.00
2024-03-02T04:11:11.258Z,993.01
2024-03-02T04:12:11.304Z,992.99
2024-03-02T04:13:11.234Z,992.99
2024-03-02T04:14:11.226Z,993.01
2024-03-02T04:15:11.248Z,992.99
2024-03-02T04:16:11.197Z,992.97
2024-03-02T04:17:11.202Z,992.94
2024-03-02T04:18:11.243Z,992.94
2024-03-02T04:19:11.177Z,992.93
2024-03-02T04:20:11.160Z,992.94
2024-03-02T04:21:11.141Z,992.94
2024-03-02T04:22:15.939Z,992.91
2024-03-02T04:23:11.161Z,992.92
2024-03-02T04:24:11.115Z,992.93
2024-03-02T04:25:11.107Z,992.95
2024-03-02T04:26:11.100Z,992.94
2024-03-02T04:27:11.078Z,992.95
2024-03-02T04:28:11.106Z,992.94
2024-03-02T04:29:11.076Z,992.99
2024-03-02T04:30:11.060Z,993.02
2024-03-02T04:31:11.053Z,993.03
2024-03-02T04:32:11.117Z,993.07
2024-03-02T04:33:11.164Z,993.07
2024-03-02T04:34:11.059Z,993.07
2024-03-02T04:35:11.026Z,993.08
2024-03-02T04:36:10.989Z,993.08
2024-03-02T04:37:11.072Z,993.08
2024-03-02T04:38:10.969Z,993.11
2024-03-02T04:39:11.028Z,993.11
2024-03-02T04:40:11.001Z,993.11
2024-03-02T04:41:10.929Z,993.11
2024-03-02T04:42:10.965Z,993.12
2024-03-02T04:43:10.917Z,993.16
2024-03-02T04:44:10.913Z,993.18
2024-03-02T04:45:10.904Z,993.18
2024-03-02T04:46:10.973Z,993.20
2024-03-02T04:47:10.888Z,993.23
2024-03-02T04:48:10.868Z,993.23
2024-03-02T04:49:10.948Z,993.22
2024-03-02T04:50:10.849Z,993.28
2024-03-02T04:51:10.887Z,993.31
2024-03-02T04:52:10.841Z,993.31
2024-03-02T04:53:10.816Z,993.30
2024-03-02T04:54:10.806Z,993.27
2024-03-02T04:55:10.817Z,993.28
2024-03-02T04:56:10.792Z,993.27
2024-03-02T04:57:10.819Z,993.35
2024-03-02T04:58:10.756Z,993.33
2024-03-02T04:59:10.757Z,993.33
2024-03-02T05:00:10.759Z,993.31
2024-03-02T05:01:10.863Z,993.33
2024-03-02T05:02:10.722Z,993.38
2024-03-02T05:03:10.725Z,993.39
2024-03-02T05:04:10.694Z,993.37
2024-03-02T05:05:10.696Z,993.40
2024-03-02T05:06:10.687Z,993.40
2024-03-02T05:07:10.718Z,993.37
2024-03-02T05:08:10.674Z,993.39
2024-03-02T05:09:10.665Z,993.39
2024-03-02T05:10:10.635Z,993.43
2024-03-02T05:11:10.655Z,993.43
2024-03-02T05:12:10.607Z,993.45
2024-03-02T05:13:10.673Z,993.45
2024-03-02T05:14:10.614Z,993.46
2024-03-02T05:15:10.605Z,993.44
2024-03-02T05:16:10.570Z,993.45
2024-03-02T05:17:10.590Z,993.44
2024-03-02T05:18:10.639Z,993.42
2024-03-02T05:19:10.582Z,993.46
2024-03-02T05:20:10.556Z,993.44
2024-03-02T05:21:10.520Z,993.42
2024-03-02T05:22:10.522Z,993.41
2024-03-02T05:23:10.504Z,993.40
2024-03-02T05:24:10.492Z,993.40
2024-03-02T05:25:10.480Z,993.42
2024-03-02T05:26:10.506Z,993.44
2024-03-02T05:27:10.475Z,993.44
2024-03-02T05:28:10.508Z,993.42
2024-03-02T05:29:10.462Z,993.43
2024-03-02T05:30:10.455Z,993.42
2024-03-02T05:31:10.428Z,993.42
2024-03-02T05:32:10.408Z,993.45
2024-03-02T05:33:10.457Z,993.45
2024-03-02T05:34:10.421Z,993.43
2024-03-02T05:35:10.392Z,993.45
2024-03-02T05:36:10.379Z,993.46
2024-03-02T05:37:10.375Z,993.45
2024-03-02T05:38:10.348Z,993.48
2024-03-02T05:39:10.412Z,993.51
2024-03-02T05:40:10.317Z,993.51
2024-03-02T05:41:10.315Z,993.53
2024-03-02T05:42:10.319Z,993.55
2024-03-02T05:43:10.337Z,993.56
2024-03-02T05:44:10.295Z,993.55
2024-03-02T05:45:10.287Z,993.56
2024-03-02T05:46:10.256Z,993.60
2024-03-02T05:47:10.275Z,993.59
2024-03-02T05:48:10.354Z,993.57
2024-03-02T05:49:10.292Z,993.56
2024-03-02T05:50:10.226Z,993.54
2024-03-02T05:51:10.214Z,993.56
2024-03-02T05:52:10.202Z,993.57
2024-03-02T05:53:10.187Z,993.54
2024-03-02T05:54:10.214Z,993.56
2024-03-02T05:55:10.165Z,993.56
2024-03-02T05:56:10.152Z,993.55
2024-03-02T05:57:10.153Z,993.56
2024-03-02T05:58:10.133Z,993.58
2024-03-02T05:59:10.142Z,993.57
2024-03-02T06:00:10.132Z,993.59
2024-03-02T06:01:10.200Z,993.63
2024-03-02T06:02:10.099Z,993.59
2024-03-02T06:03:10.102Z,993.59
2024-03-02T06:04:10.074Z,993.66
2024-03-02T06:05:10.150Z,993.74
2024-03-02T06:06:10.054Z,993.75
2024-03-02T06:07:10.063Z,993.74
2024-03-02T06:08:10.046Z,993.72
2024-03-02T06:09:10.026Z,993.69
2024-03-02T06:10:13.774Z,993.65
2024-03-02T06:11:10.091Z,993.63
2024-03-02T06:12:10.015Z,993.65
2024-03-02T06:13:09.983Z,993.68
2024-03-02T06:14:10.032Z,993.70
2024-03-02T06:15:09.983Z,993.70
2024-03-02T06:16:10.011Z,993.70
2024-03-02T06:17:09.989Z,993.68
2024-03-02T06:18:09.988Z,993.68
2024-03-02T06:19:09.918Z,993.70
2024-03-02T06:20:10.277Z,993.72
2024-03-02T06:21:09.892Z,993.78
2024-03-02T06:22:09.926Z,993.84
2024-03-02T06:23:09.990Z,993.88
2024-03-02T06:24:09.858Z,993.89
2024-03-02T06:25:09.932Z,993.92
2024-03-02T06:26:09.868Z,993.96
2024-03-02T06:27:09.849Z,993.99
2024-03-02T06:28:09.839Z,994.01
2024-03-02T06:29:09.819Z,994.02
2024-03-02T06:30:09.841Z,994.00
2024-03-02T06:31:09.843Z,994.01
2024-03-02T06:32:09.794Z,994.04
2024-03-02T06:33:09.854Z,994.09
2024-03-02T06:34:09.925Z,994.13
2024-03-02T06:35:09.760Z,994.15
2024-03-02T06:36:09.733Z,994.14
2024-03-02T06:37:09.741Z,994.15
2024-03-02T06:38:09.737Z,994.14
2024-03-02T06:39:09.737Z,994.12
2024-03-02T06:40:09.696Z,994.15
2024-03-02T06:41:09.695Z,994.17
2024-03-02T06:42:09.677Z,994.18
2024-03-02T06:43:09.672Z,994.19
2024-03-02T06:44:09.666Z,994.17
2024-03-02T06:45:09.668Z,994.20
2024-03-02T06:46:09.634Z,994.21
2024-03-02T06:47:09.636Z,994.21
2024-03-02T06:48:09.653Z,994.20
2024-03-02T06:49:09.622Z,994.20
2024-03-02T06:50:09.606Z,994.21
2024-03-02T06:51:09.670Z,994.22
2024-03-02T06:52:09.572Z,994.25
2024-03-02T06:53:09.570Z,994.25
2024-03-02T06:54:09.590Z,994.22
2024-03-02T06:55:09.554Z,994.21
2024-03-02T06:56:09.558Z,994.20
2024-03-02T06:57:09.525Z,994.18
2024-03-02T06:58:09.542Z,994.17
2024-03-02T06:59:09.510Z,994.17
2024-03-02T07:00:09.503Z,994.16
2024-03-02T07:01:09.516Z,994.17
2024-03-02T07:02:09.563Z,994.18
2024-03-02T07:03:09.466Z,994.19
2024-03-02T07:04:09.484Z,994.18
2024-03-02T07:05:09.449Z,994.17
2024-03-02T07:06:09.431Z,994.19
2024-03-02T07:07:09.452Z,994.21
2024-03-02T07:08:09.463Z,994.19
2024-03-02T07:09:09.420Z,994.17
2024-03-02T07:10:09.398Z,994.21
2024-03-02T07:11:09.406Z,994.26
2024-03-02T07:12:09.355Z,994.24
2024-03-02T07:13:09.407Z,994.23
2024-03-02T07:14:09.363Z,994.25
2024-03-02T07:15:09.345Z,994.28
2024-03-02T07:16:09.361Z,994.26
2024-03-02T07:17:09.308Z,994.26
2024-03-02T07:18:09.304Z,994.25
2024-03-02T07:19:09.449Z,994.23
2024-03-02T07:20:09.339Z,994.18
2024-03-02T07:21:09.269Z,994.15
2024-03-02T07:22:09.279Z,994.13
2024-03-02T07:23:09.261Z,994.14
2024-03-02T07:24:09.228Z,994.18
2024-03-02T07:25:09.226Z,994.21
2024-03-02T07:27:09.197Z,994.26
2024-03-02T07:28:09.193Z,994.20
2024-03-02T07:29:09.196Z,994.18
2024-03-02T07:30:09.177Z,994.16
2024-03-02T07:31:09.235Z,994.17
2024-03-02T07:32:09.184Z,994.19
2024-03-02T07:33:09.178Z,994.21
2024-03-02T07:34:09.188Z,994.23
2024-03-02T07:35:09.155Z,994.26
2024-03-02T07:36:09.159Z,994.28
2024-03-02T07:37:09.116Z,994.28
2024-03-02T07:38:09.084Z,994.28
2024-03-02T07:39:09.080Z,994.29
2024-03-02T07:40:09.069Z,994.31
2024-03-02T07:41:09.074Z,994.31
2024-03-02T07:42:09.081Z,994.26
2024-03-02T07:43:09.038Z,994.29
2024-03-02T07:44:09.024Z,994.30
2024-03-02T07:45:09.004Z,994.31
2024-03-02T07:46:09.011Z,994.32
2024-03-02T07:47:09.033Z,994.29
2024-03-02T07:48:09.024Z,994.32
2024-03-02T07:49:08.977Z,994.33
2024-03-02T07:50:08.979Z,994.32
2024-03-02T07:51:08.958Z,994.34
2024-03-02T07:52:08.942Z,994.37
2024-03-02T07:53:09.001Z,994.38
2024-03-02T07:54:08.912Z,994.37
2024-03-02T07:55:08.908Z,994.39
2024-03-02T07:56:08.905Z,994.38
2024-03-02T07:57:08.885Z,994.41
2024-03-02T07:58:08.920Z,994.40
2024-03-02T07:59:08.912Z,994.41
2024-03-02T08:00:08.861Z,994.42
2024-03-02T08:01:08.886Z,994.46
2024-03-02T08:02:08.851Z,994.46
2024-03-02T08:03:08.833Z,994.46
2024-03-02T08:04:08.817Z,994.44
2024-03-02T08:05:08.837Z,994.41
2024-03-02T08:06:08.836Z,994.38
2024-03-02T08:07:08.842Z,994.39
2024-03-02T08:08:08.804Z,994.38
2024-03-02T08:09:08.756Z,994.40
2024-03-02T08:10:08.834Z,994.41
2024-03-02T08:11:08.785Z,994.40
2024-03-02T08:12:16.264Z,994.38
2024-03-02T08:13:08.723Z,994.39
2024-03-02T08:14:09.297Z,994.35
2024-03-02T08:15:08.710Z,994.35
2024-03-02T08:16:08.783Z,994.35
2024-03-02T08:17:08.670Z,994.35
2024-03-02T08:18:08.699Z,994.37
2024-03-02T08:19:08.710Z,994.33
2024-03-02T08:20:08.646Z,994.32
2024-03-02T08:21:08.638Z,994.32
2024-03-02T08:22:08.728Z,994.34
2024-03-02T08:23:08.611Z,994.33
2024-03-02T08:24:08.594Z,994.33
2024-03-02T08:25:08.641Z,994.34
2024-03-02T08:26:08.583Z,994.35
2024-03-02T08:27:08.591Z,994.29
2024-03-02T08:28:08.630Z,994.29
2024-03-02T08:29:08.554Z,994.28
2024-03-02T08:30:08.553Z,994.25
2024-03-02T08:31:08.574Z,994.26
2024-03-02T08:32:08.514Z,994.22
2024-03-02T08:33:08.578Z,994.23
2024-03-02T08:34:08.556Z,994.24
2024-03-02T08:35:08.484Z,994.22
2024-03-02T08:36:08.462Z,994.23
2024-03-02T08:37:08.488Z,994.23
2024-03-02T08:38:08.447Z,994.23
2024-03-02T08:39:08.447Z,994.24
2024-03-02T08:40:08.556Z,994.23
2024-03-02T08:41:08.420Z,994.22
2024-03-02T08:42:08.405Z,994.22
2024-03-02T08:43:08.421Z,994.18
2024-03-02T08:44:08.391Z,994.19
2024-03-02T08:45:08.379Z,994.19
2024-03-02T08:46:08.412Z,994.20
2024-03-02T08:47:08.359Z,994.21
2024-03-02T08:48:08.362Z,994.20
2024-03-02T08:49:08.380Z,994.21
2024-03-02T08:50:08.337Z,994.25
2024-03-02T08:51:08.321Z,994.25
2024-03-02T08:52:08.372Z,994.22
2024-03-02T08:53:08.279Z,994.26
2024-03-02T08:54:08.287Z,994.24
2024-03-02T08:55:08.353Z,994.26
2024-03-02T08:56:08.282Z,994.27
2024-03-02T08:57:08.278Z,994.31
2024-03-02T08:58:08.295Z,994.29
2024-03-02T08:59:08.218Z,994.35
2024-03-02T09:00:08.217Z,994.34
2024-03-02T09:01:08.355Z,994.34
2024-03-02T09:02:08.241Z,994.35
2024-03-02T09:03:08.170Z,994.37
2024-03-02T09:04:08.219Z,994.36
2024-03-02T09:05:08.158Z,994.33
2024-03-02T09:06:08.142Z,994.32
2024-03-02T09:07:08.224Z,994.35
2024-03-02T09:08:08.153Z,994.30
2024-03-02T09:09:08.157Z,994.34
2024-03-02T09:10:08.149Z,994.40
2024-03-02T09:11:08.080Z,994.38
2024-03-02T09:12:08.158Z,994.43
2024-03-02T09:13:08.120Z,994.39
2024-03-02T09:14:08.068Z,994.33
2024-03-02T09:15:08.047Z,994.25
2024-03-02T09:16:08.115Z,994.32
2024-03-02T09:17:08.017Z,994.27
2024-03-02T09:18:08.174Z,994.32
2024-03-02T09:19:08.076Z,994.32
2024-03-02T09:20:08.003Z,994.29
2024-03-02T09:21:08.002Z,994.31
2024-03-02T09:22:08.016Z,994.29
2024-03-02T09:23:07.960Z,994.26
2024-03-02T09:24:08.218Z,994.24
2024-03-02T09:25:07.976Z,994.27
2024-03-02T09:26:07.930Z,994.27
2024-03-02T09:27:07.912Z,994.32
2024-03-02T09:28:07.943Z,994.28
2024-03-02T09:29:07.915Z,994.23
2024-03-02T09:30:07.920Z,994.23
2024-03-02T09:31:08.043Z,994.24
2024-03-02T09:32:07.874Z,994.19
2024-03-02T09:34:08.050Z,994.13
2024-03-02T09:35:07.852Z,994.12
2024-03-02T09:36:07.845Z,994.13
2024-03-02T09:37:07.823Z,994.11
2024-03-02T09:38:07.823Z,994.12
2024-03-02T09:39:07.811Z,994.09
2024-03-02T09:40:07.813Z,994.07
2024-03-02T09:41:07.820Z,994.12
2024-03-02T09:42:07.789Z,994.07
2024-03-02T09:43:07.791Z,994.07
2024-03-02T09:44:07.746Z,994.07
2024-03-02T09:45:07.727Z,994.09
2024-03-02T09:46:07.802Z,994.10
2024-03-02T09:47:07.706Z,994.07
2024-03-02T09:48:07.734Z,994.06
2024-03-02T09:49:07.683Z,994.07
2024-03-02T09:50:07.680Z,994.04
2024-03-02T09:51:07.660Z,994.03
2024-03-02T09:52:07.701Z,994.02
2024-03-02T09:53:07.664Z,993.99
2024-03-02T09:54:13.454Z,993.96
2024-03-02T09:55:07.721Z,994.00
2024-03-02T09:56:07.615Z,994.00
2024-03-02T09:57:07.602Z,994.03
2024-03-02T09:58:07.679Z,993.99
2024-03-02T09:59:07.592Z,993.97
2024-03-02T10:00:07.590Z,994.00
2024-03-02T10:01:07.740Z,993.98
2024-03-02T10:02:07.544Z,994.00
2024-03-02T10:03:07.531Z,993.96
2024-03-02T10:04:07.565Z,993.97
2024-03-02T10:05:07.564Z,993.95
2024-03-02T10:06:07.510Z,993.92
2024-03-02T10:07:07.496Z,993.98
2024-03-02T10:08:07.500Z,993.89
2024-03-02T10:09:07.470Z,993.97
2024-03-02T10:10:07.521Z,993.93
2024-03-02T10:11:07.462Z,993.96
2024-03-02T10:12:07.459Z,993.90
2024-03-02T10:13:07.444Z,993.92
2024-03-02T10:14:07.421Z,993.93
2024-03-02T10:15:07.440Z,993.92
2024-03-02T10:16:07.453Z,993.89
2024-03-02T10:17:07.386Z,993.84
2024-03-02T10:18:07.396Z,993.84
2024-03-02T10:19:07.445Z,993.83
2024-03-02T10:20:07.394Z,993.82
2024-03-02T10:21:07.383Z,993.79
2024-03-02T10:22:07.496Z,993.78
2024-03-02T10:23:07.345Z,993.82
2024-03-02T10:24:07.362Z,993.84
2024-03-02T10:25:22.011Z,993.87
2024-03-02T10:26:07.416Z,993.79
2024-03-02T10:27:07.338Z,993.85
2024-03-02T10:28:07.372Z,993.85
2024-03-02T10:29:07.287Z,993.85
2024-03-02T10:30:07.343Z,993.78
2024-03-02T10:31:08.238Z,993.85
2024-03-02T10:32:07.256Z,993.81
2024-03-02T10:33:07.411Z,993.80
2024-03-02T10:34:07.270Z,993.77
2024-03-02T10:35:07.302Z,993.83
2024-03-02T10:36:07.233Z,993.84
2024-03-02T10:37:07.376Z,993.86
2024-03-02T10:38:07.226Z,993.82
2024-03-02T10:39:07.190Z,993.94
2024-03-02T10:40:07.234Z,993.97
2024-03-02T10:41:07.150Z,993.84
2024-03-02T10:42:07.147Z,993.95
2024-03-02T10:43:07.322Z,993.98
2024-03-02T10:44:07.141Z,993.95
2024-03-02T10:45:07.104Z,993.95
2024-03-02T10:46:07.149Z,993.98
2024-03-02T10:47:07.169Z,993.93
2024-03-02T10:48:07.144Z,994.00
2024-03-02T10:49:08.719Z,993.90
2024-03-02T10:50:07.072Z,993.92
2024-03-02T10:51:07.049Z,993.94
2024-03-02T10:52:07.121Z,993.96
2024-03-02T10:53:07.181Z,994.09
2024-03-02T10:54:07.029Z,993.89
2024-03-02T10:55:07.129Z,994.13
2024-03-02T10:56:07.042Z,994.01
2024-03-02T10:57:06.976Z,993.90
2024-03-02T10:58:07.037Z,993.88
2024-03-02T10:59:06.960Z,993.88
2024-03-02T11:00:06.960Z,993.84
2024-03-02T11:01:07.042Z,993.82
2024-03-02T11:02:07.050Z,993.82
2024-03-02T11:03:06.940Z,993.80
2024-03-02T11:04:06.958Z,993.81
2024-03-02T11:05:06.993Z,993.80
2024-03-02T11:06:06.893Z,993.76
2024-03-02T11:07:06.965Z,993.77
2024-03-02T11:08:06.894Z,993.77
2024-03-02T11:09:06.866Z,993.77
2024-03-02T11:10:06.912Z,993.71
2024-03-02T11:11:06.898Z,993.74
2024-03-02T11:12:06.846Z,993.78
2024-03-02T11:13:06.832Z,993.81
2024-03-02T11:14:06.808Z,993.70
2024-03-02T11:15:06.803Z,993.91
2024-03-02T11:16:06.875Z,993.84
2024-03-02T11:17:06.780Z,993.75
2024-03-02T11:18:06.829Z,993.75
2024-03-02T11:19:06.872Z,993.84
2024-03-02T11:20:06.762Z,993.79
2024-03-02T11:21:06.771Z,993.82
2024-03-02T11:22:06.781Z,993.81
2024-03-02T11:23:06.742Z,993.79
2024-03-02T11:24:06.704Z,993.84
2024-03-02T11:25:06.722Z,993.75
2024-03-02T11:26:06.695Z,993.70
2024-03-02T11:27:06.686Z,993.72
2024-03-02T11:28:06.877Z,993.68
2024-03-02T11:29:06.709Z,993.64
2024-03-02T11:30:08.363Z,993.67
2024-03-02T11:31:06.664Z,993.61
2024-03-02T11:32:06.654Z,993.52
2024-03-02T11:33:06.627Z,993.58
2024-03-02T11:34:06.703Z,993.66
2024-03-02T11:35:06.627Z,993.63
2024-03-02T11:36:09.013Z,993.55
2024-03-02T11:37:06.589Z,993.48
2024-03-02T11:38:06.569Z,993.52
2024-03-02T11:39:06.631Z,993.53
2024-03-02T11:40:06.602Z,993.50
2024-03-02T11:41:06.539Z,993.53
2024-03-02T11:42:06.517Z,993.51
2024-03-02T11:43:06.569Z,993.42
2024-03-02T11:44:06.519Z,993.53
2024-03-02T11:45:06.505Z,993.49
2024-03-02T11:46:06.559Z,993.48
2024-03-02T11:47:06.477Z,993.43
2024-03-02T11:48:06.525Z,993.42
2024-03-02T11:49:06.500Z,993.42
2024-03-02T11:50:06.450Z,993.47
2024-03-02T11:51:06.443Z,993.44
2024-03-02T11:52:06.510Z,993.38
2024-03-02T11:53:06.416Z,993.37
2024-03-02T11:54:06.400Z,993.36
2024-03-02T11:55:06.456Z,993.39
2024-03-02T11:56:06.375Z,993.39
2024-03-02T11:57:06.374Z,993.39
2024-03-02T11:58:06.516Z,993.34
2024-03-02T11:59:06.350Z,993.41
2024-03-02T12:00:06.366Z,993.37
2024-03-02T12:01:06.532Z,993.28
2024-03-02T12:02:06.687Z,993.32
2024-03-02T12:03:06.376Z,993.35
2024-03-02T12:04:06.319Z,993.33
2024-03-02T12:05:06.295Z,993.31
2024-03-02T12:06:06.291Z,993.35
2024-03-02T12:07:06.352Z,993.29
2024-03-02T12:08:06.318Z,993.23
2024-03-02T12:09:06.282Z,993.24
2024-03-02T12:10:06.315Z,993.21
2024-03-02T12:11:06.311Z,993.19
2024-03-02T12:12:06.224Z,993.11
2024-03-02T12:13:06.405Z,993.20
2024-03-02T12:14:06.248Z,993.20
2024-03-02T12:15:06.230Z,993.24
2024-03-02T12:16:06.318Z,993.23
2024-03-02T12:17:06.178Z,993.21
2024-03-02T12:18:06.195Z,993.18
2024-03-02T12:19:06.223Z,993.16
2024-03-02T12:20:06.161Z,993.14
2024-03-02T12:21:06.133Z,993.14
2024-03-02T12:22:06.208Z,993.11
2024-03-02T12:23:06.227Z,993.09
2024-03-02T12:24:06.114Z,993.10
2024-03-02T12:25:06.223Z,993.05
2024-03-02T12:26:06.187Z,993.04
2024-03-02T12:27:06.082Z,993.05
2024-03-02T12:28:06.199Z,993.10
2024-03-02T12:29:06.074Z,993.03
2024-03-02T12:30:06.061Z,993.10